Beckemeyer, IL

11:40 PM CDT on July 01, 2015 (GMT -0500)
Courthouse | | Change Station
CLOSE
Current Station
Personal Weather Station
Location: Carlyle, IL
Elevation: 472 ft
Nearby Weather Stations

Elev 472 ft 38.61 °N, 89.37 °W | Updated 8 minutes ago

Rain
Rain
73.2 °F
Feels Like 70 °F
N
7.0
Wind Variable Wind from ENE
Gusts 13.0 mph

Today
High -- | Low -- °F
--% Chance of Precip.
Yesterday
High -- | Low -- °F
Precip. -- in
5:36 AM 8:26 PM
Full, 100% visible
Pressure 29.87 in
Visibility 10.0 miles
Clouds Mostly Cloudy 12000 ft
Heat Index 70 °F
Dew Point 71 °F
Humidity 92%
Rainfall 0.07 in
Snow Depth Not available.
UV 0 out of 12
Pollen .60 out of 12
Air Quality Not available.
Flu Activity Not available.
METAR KENL 020415Z AUTO 00000KT 10SM BKN120 23/21 A2987 RMK AO2 T02270210

More Conditions Fewer Conditions

Pressure 29.87 in
Visibility 10.0 miles
Clouds Mostly Cloudy 12000 ft
Heat Index 70 °F
Dew Point 71 °F
Humidity 92%
Rainfall 0.07 in
Snow Depth Not available.
UV 0 out of 12
Pollen .60 out of 12
Air Quality Not available.
Flu Activity Not available.
METAR KENL 020415Z AUTO 00000KT 10SM BKN120 23/21 A2987 RMK AO2 T02270210

More Conditions Fewer Conditions

10-Day Weather Forecast

×

Almanac

Astronomy

Jul. 01, 2015 Rise Set
Actual Time
Civil Twilight
Nautical Twilight
Astronomical Twilight
Moon
Length of Visible Light
Length of Day
Tomorrow will be .
, % of the Moon is Illuminated

Today's Extremes

State Highs State Lows

Community

WunderPhotos

Upload Photos

1,834,421 photos uploaded!

WunderBlogs® & News

Nearby

Air Quality

  Air Quality AQ Index Pollutant
Not available.

Snow Depth

Station Depth Elevation

Earthquake Activity

City Distance Mag. Time & Date
Minimum magnitude displayed is 2.5.

Coastal Water Temperatures

Place Temperature

Stations

Nearby Weather Stations

Station Location Temp. Windchill Dew Point Humidity Wind Precip. Elev Updated Type